sensor_id;sensor_type;location;lat;lon;timestamp;P1;durP1;ratioP1;P2;durP2;ratioP2
53339;SDS011;46212;50.258;19.062;2022-11-02T00:00:34;38.95;;;18.25;;
53339;SDS011;46212;50.258;19.062;2022-11-02T00:03:00;38.85;;;19.83;;
53339;SDS011;46212;50.258;19.062;2022-11-02T00:05:26;38.95;;;19.88;;
53339;SDS011;46212;50.258;19.062;2022-11-02T00:07:52;39.43;;;20.57;;
53339;SDS011;46212;50.258;19.062;2022-11-02T00:10:20;36.35;;;18.90;;
53339;SDS011;46212;50.258;19.062;2022-11-02T00:12:46;38.45;;;19.27;;
53339;SDS011;46212;50.258;19.062;2022-11-02T00:15:12;47.53;;;21.73;;
53339;SDS011;46212;50.258;19.062;2022-11-02T00:17:38;37.37;;;20.10;;
53339;SDS011;46212;50.258;19.062;2022-11-02T00:20:07;38.72;;;20.05;;
53339;SDS011;46212;50.258;19.062;2022-11-02T00:22:34;38.45;;;19.65;;
53339;SDS011;46212;50.258;19.062;2022-11-02T00:25:00;49.58;;;22.50;;
53339;SDS011;46212;50.258;19.062;2022-11-02T00:27:28;44.75;;;21.13;;
53339;SDS011;46212;50.258;19.062;2022-11-02T00:32:20;49.50;;;21.00;;
53339;SDS011;46212;50.258;19.062;2022-11-02T00:34:46;46.47;;;23.27;;
53339;SDS011;46212;50.258;19.062;2022-11-02T00:37:14;44.03;;;22.67;;
53339;SDS011;46212;50.258;19.062;2022-11-02T00:39:40;47.33;;;23.77;;
53339;SDS011;46212;50.258;19.062;2022-11-02T00:42:07;51.90;;;23.90;;
53339;SDS011;46212;50.258;19.062;2022-11-02T00:44:33;48.50;;;22.93;;
53339;SDS011;46212;50.258;19.062;2022-11-02T00:46:58;46.90;;;23.30;;
53339;SDS011;46212;50.258;19.062;2022-11-02T00:49:24;49.70;;;22.97;;
53339;SDS011;46212;50.258;19.062;2022-11-02T00:51:49;44.27;;;21.30;;
53339;SDS011;46212;50.258;19.062;2022-11-02T00:54:15;50.90;;;24.77;;
53339;SDS011;46212;50.258;19.062;2022-11-02T00:56:41;44.77;;;24.03;;
53339;SDS011;46212;50.258;19.062;2022-11-02T00:59:06;49.23;;;24.40;;
53339;SDS011;46212;50.258;19.062;2022-11-02T01:01:32;49.90;;;23.47;;
53339;SDS011;46212;50.258;19.062;2022-11-02T01:03:57;53.30;;;22.67;;
53339;SDS011;46212;50.258;19.062;2022-11-02T01:06:23;45.00;;;22.60;;
53339;SDS011;46212;50.258;19.062;2022-11-02T01:08:48;48.80;;;23.67;;
53339;SDS011;46212;50.258;19.062;2022-11-02T01:11:18;47.03;;;23.00;;
53339;SDS011;46212;50.258;19.062;2022-11-02T01:13:48;49.85;;;25.30;;
53339;SDS011;46212;50.258;19.062;2022-11-02T01:16:16;52.50;;;24.58;;
53339;SDS011;46212;50.258;19.062;2022-11-02T01:18:42;55.13;;;26.37;;
53339;SDS011;46212;50.258;19.062;2022-11-02T01:21:07;56.37;;;26.80;;
53339;SDS011;46212;50.258;19.062;2022-11-02T01:23:34;44.22;;;22.55;;
53339;SDS011;46212;50.258;19.062;2022-11-02T01:26:02;51.70;;;25.20;;
53339;SDS011;46212;50.258;19.062;2022-11-02T01:28:34;51.45;;;26.15;;
53339;SDS011;46212;50.258;19.062;2022-11-02T01:31:00;54.03;;;27.42;;
53339;SDS011;46212;50.258;19.062;2022-11-02T01:33:26;55.65;;;26.55;;
53339;SDS011;46212;50.258;19.062;2022-11-02T01:35:52;57.70;;;26.57;;
53339;SDS011;46212;50.258;19.062;2022-11-02T01:38:18;55.05;;;26.77;;
53339;SDS011;46212;50.258;19.062;2022-11-02T01:40:44;58.17;;;27.17;;
53339;SDS011;46212;50.258;19.062;2022-11-02T01:51:04;51.70;;;25.40;;
53339;SDS011;46212;50.258;19.062;2022-11-02T01:53:34;52.60;;;25.23;;
53339;SDS011;46212;50.258;19.062;2022-11-02T01:56:03;57.75;;;24.88;;
53339;SDS011;46212;50.258;19.062;2022-11-02T01:58:30;55.53;;;26.73;;
53339;SDS011;46212;50.258;19.062;2022-11-02T02:00:59;59.15;;;27.25;;
53339;SDS011;46212;50.258;19.062;2022-11-02T02:03:24;53.30;;;25.83;;
53339;SDS011;46212;50.258;19.062;2022-11-02T02:08:30;58.50;;;24.55;;
53339;SDS011;46212;50.258;19.062;2022-11-02T02:10:57;53.47;;;23.63;;
53339;SDS011;46212;50.258;19.062;2022-11-02T02:13:23;50.63;;;24.27;;
53339;SDS011;46212;50.258;19.062;2022-11-02T02:16:11;52.95;;;25.88;;
53339;SDS011;46212;50.258;19.062;2022-11-02T02:21:41;46.55;;;21.83;;
53339;SDS011;46212;50.258;19.062;2022-11-02T02:35:59;52.97;;;24.00;;
53339;SDS011;46212;50.258;19.062;2022-11-02T02:38:27;45.15;;;21.10;;
53339;SDS011;46212;50.258;19.062;2022-11-02T02:46:23;54.00;;;23.73;;
53339;SDS011;46212;50.258;19.062;2022-11-02T02:48:49;48.63;;;24.10;;
53339;SDS011;46212;50.258;19.062;2022-11-02T02:51:29;46.65;;;22.27;;
53339;SDS011;46212;50.258;19.062;2022-11-02T02:54:03;50.85;;;23.33;;
53339;SDS011;46212;50.258;19.062;2022-11-02T02:56:38;53.72;;;23.52;;
53339;SDS011;46212;50.258;19.062;2022-11-02T02:59:12;51.47;;;23.30;;
53339;SDS011;46212;50.258;19.062;2022-11-02T03:01:44;48.88;;;24.33;;
53339;SDS011;46212;50.258;19.062;2022-11-02T03:04:13;51.80;;;25.47;;
53339;SDS011;46212;50.258;19.062;2022-11-02T03:06:43;51.90;;;24.30;;
53339;SDS011;46212;50.258;19.062;2022-11-02T03:11:54;53.63;;;23.38;;
53339;SDS011;46212;50.258;19.062;2022-11-02T03:14:42;48.30;;;22.30;;
53339;SDS011;46212;50.258;19.062;2022-11-02T03:17:17;48.95;;;25.38;;
53339;SDS011;46212;50.258;19.062;2022-11-02T03:19:54;53.20;;;24.10;;
53339;SDS011;46212;50.258;19.062;2022-11-02T03:22:30;50.95;;;24.23;;
53339;SDS011;46212;50.258;19.062;2022-11-02T03:25:07;51.90;;;23.60;;
53339;SDS011;46212;50.258;19.062;2022-11-02T03:27:39;49.30;;;23.63;;
53339;SDS011;46212;50.258;19.062;2022-11-02T03:30:16;53.67;;;23.88;;
53339;SDS011;46212;50.258;19.062;2022-11-02T03:35:33;42.40;;;19.92;;
53339;SDS011;46212;50.258;19.062;2022-11-02T03:38:05;43.38;;;21.90;;
53339;SDS011;46212;50.258;19.062;2022-11-02T03:40:38;46.70;;;21.23;;
53339;SDS011;46212;50.258;19.062;2022-11-02T03:43:08;45.55;;;22.33;;
53339;SDS011;46212;50.258;19.062;2022-11-02T03:45:37;46.10;;;21.77;;
53339;SDS011;46212;50.258;19.062;2022-11-02T03:48:06;44.60;;;22.10;;
53339;SDS011;46212;50.258;19.062;2022-11-02T03:50:35;50.63;;;23.33;;
53339;SDS011;46212;50.258;19.062;2022-11-02T03:53:07;45.45;;;20.75;;
53339;SDS011;46212;50.258;19.062;2022-11-02T03:55:37;52.17;;;21.70;;
53339;SDS011;46212;50.258;19.062;2022-11-02T03:58:08;49.55;;;21.88;;
53339;SDS011;46212;50.258;19.062;2022-11-02T04:00:35;50.00;;;22.88;;
53339;SDS011;46212;50.258;19.062;2022-11-02T04:05:32;54.80;;;23.58;;
53339;SDS011;46212;50.258;19.062;2022-11-02T04:07:58;47.05;;;23.98;;
53339;SDS011;46212;50.258;19.062;2022-11-02T04:10:43;59.63;;;24.23;;
53339;SDS011;46212;50.258;19.062;2022-11-02T04:13:27;54.28;;;25.95;;
53339;SDS011;46212;50.258;19.062;2022-11-02T04:16:12;62.50;;;27.08;;
53339;SDS011;46212;50.258;19.062;2022-11-02T04:18:37;61.83;;;25.75;;
53339;SDS011;46212;50.258;19.062;2022-11-02T04:21:21;56.42;;;26.38;;
53339;SDS011;46212;50.258;19.062;2022-11-02T04:23:47;55.57;;;26.30;;
53339;SDS011;46212;50.258;19.062;2022-11-02T04:26:30;53.55;;;24.33;;
53339;SDS011;46212;50.258;19.062;2022-11-02T04:28:56;57.80;;;27.17;;
53339;SDS011;46212;50.258;19.062;2022-11-02T04:31:21;52.23;;;24.07;;
53339;SDS011;46212;50.258;19.062;2022-11-02T04:33:46;59.97;;;26.30;;
53339;SDS011;46212;50.258;19.062;2022-11-02T04:36:12;55.80;;;26.23;;
53339;SDS011;46212;50.258;19.062;2022-11-02T04:38:37;58.10;;;28.27;;
53339;SDS011;46212;50.258;19.062;2022-11-02T04:41:09;51.13;;;24.65;;
53339;SDS011;46212;50.258;19.062;2022-11-02T04:43:58;58.42;;;25.63;;
53339;SDS011;46212;50.258;19.062;2022-11-02T04:46:24;58.47;;;27.37;;
53339;SDS011;46212;50.258;19.062;2022-11-02T04:48:51;52.17;;;24.92;;
53339;SDS011;46212;50.258;19.062;2022-11-02T04:51:17;59.70;;;27.43;;
53339;SDS011;46212;50.258;19.062;2022-11-02T04:53:45;58.55;;;26.92;;
53339;SDS011;46212;50.258;19.062;2022-11-02T04:56:11;61.53;;;29.55;;
53339;SDS011;46212;50.258;19.062;2022-11-02T04:58:36;66.70;;;27.73;;
53339;SDS011;46212;50.258;19.062;2022-11-02T05:01:09;66.23;;;29.50;;
53339;SDS011;46212;50.258;19.062;2022-11-02T05:03:38;58.80;;;25.70;;
53339;SDS011;46212;50.258;19.062;2022-11-02T05:06:03;58.57;;;29.23;;
53339;SDS011;46212;50.258;19.062;2022-11-02T05:08:29;59.80;;;27.70;;
53339;SDS011;46212;50.258;19.062;2022-11-02T05:10:56;58.30;;;25.73;;
53339;SDS011;46212;50.258;19.062;2022-11-02T05:13:22;54.30;;;25.35;;
53339;SDS011;46212;50.258;19.062;2022-11-02T05:15:48;59.08;;;26.83;;
53339;SDS011;46212;50.258;19.062;2022-11-02T05:18:14;54.10;;;24.23;;
53339;SDS011;46212;50.258;19.062;2022-11-02T05:20:39;57.23;;;27.43;;
53339;SDS011;46212;50.258;19.062;2022-11-02T05:23:05;54.83;;;26.43;;
53339;SDS011;46212;50.258;19.062;2022-11-02T05:25:30;58.30;;;26.33;;
53339;SDS011;46212;50.258;19.062;2022-11-02T05:27:56;58.35;;;25.80;;
53339;SDS011;46212;50.258;19.062;2022-11-02T05:30:22;53.97;;;22.93;;
53339;SDS011;46212;50.258;19.062;2022-11-02T05:32:48;54.90;;;26.33;;
53339;SDS011;46212;50.258;19.062;2022-11-02T05:35:13;55.13;;;25.23;;
53339;SDS011;46212;50.258;19.062;2022-11-02T05:37:39;67.17;;;25.00;;
53339;SDS011;46212;50.258;19.062;2022-11-02T05:40:05;57.57;;;26.07;;
53339;SDS011;46212;50.258;19.062;2022-11-02T05:42:32;56.38;;;25.02;;
53339;SDS011;46212;50.258;19.062;2022-11-02T05:44:58;61.27;;;27.27;;
53339;SDS011;46212;50.258;19.062;2022-11-02T05:47:23;61.07;;;28.17;;
53339;SDS011;46212;50.258;19.062;2022-11-02T05:49:49;64.47;;;28.10;;
53339;SDS011;46212;50.258;19.062;2022-11-02T05:52:14;63.67;;;27.77;;
53339;SDS011;46212;50.258;19.062;2022-11-02T05:54:40;66.70;;;29.43;;
53339;SDS011;46212;50.258;19.062;2022-11-02T05:57:05;77.07;;;30.50;;
53339;SDS011;46212;50.258;19.062;2022-11-02T05:59:30;67.63;;;27.40;;
53339;SDS011;46212;50.258;19.062;2022-11-02T06:01:56;72.17;;;31.37;;
53339;SDS011;46212;50.258;19.062;2022-11-02T06:04:22;75.17;;;29.70;;
53339;SDS011;46212;50.258;19.062;2022-11-02T06:06:47;81.47;;;30.10;;
53339;SDS011;46212;50.258;19.062;2022-11-02T06:09:12;83.10;;;31.13;;
53339;SDS011;46212;50.258;19.062;2022-11-02T06:11:38;72.23;;;30.50;;
53339;SDS011;46212;50.258;19.062;2022-11-02T06:14:03;59.60;;;26.73;;
53339;SDS011;46212;50.258;19.062;2022-11-02T06:16:28;63.50;;;26.77;;
53339;SDS011;46212;50.258;19.062;2022-11-02T06:18:55;63.42;;;26.85;;
53339;SDS011;46212;50.258;19.062;2022-11-02T06:21:20;60.03;;;25.10;;
53339;SDS011;46212;50.258;19.062;2022-11-02T06:23:46;65.97;;;26.50;;
53339;SDS011;46212;50.258;19.062;2022-11-02T06:26:12;56.72;;;23.35;;
53339;SDS011;46212;50.258;19.062;2022-11-02T06:28:37;48.90;;;23.33;;
53339;SDS011;46212;50.258;19.062;2022-11-02T06:31:03;53.43;;;20.83;;
53339;SDS011;46212;50.258;19.062;2022-11-02T06:33:28;50.43;;;22.53;;
53339;SDS011;46212;50.258;19.062;2022-11-02T06:35:54;52.23;;;21.43;;
53339;SDS011;46212;50.258;19.062;2022-11-02T06:38:20;52.63;;;21.57;;
53339;SDS011;46212;50.258;19.062;2022-11-02T06:40:52;46.53;;;19.67;;
53339;SDS011;46212;50.258;19.062;2022-11-02T06:43:21;41.50;;;20.10;;
53339;SDS011;46212;50.258;19.062;2022-11-02T06:45:48;44.78;;;20.70;;
53339;SDS011;46212;50.258;19.062;2022-11-02T06:48:13;47.97;;;21.90;;
53339;SDS011;46212;50.258;19.062;2022-11-02T06:50:39;46.37;;;21.33;;
53339;SDS011;46212;50.258;19.062;2022-11-02T06:53:04;46.97;;;23.47;;
53339;SDS011;46212;50.258;19.062;2022-11-02T06:55:29;49.47;;;22.23;;
53339;SDS011;46212;50.258;19.062;2022-11-02T06:57:55;44.03;;;20.37;;
53339;SDS011;46212;50.258;19.062;2022-11-02T07:00:20;49.47;;;21.90;;
53339;SDS011;46212;50.258;19.062;2022-11-02T07:02:57;48.90;;;24.75;;
53339;SDS011;46212;50.258;19.062;2022-11-02T07:05:26;48.00;;;21.30;;
53339;SDS011;46212;50.258;19.062;2022-11-02T07:07:52;49.57;;;22.70;;
53339;SDS011;46212;50.258;19.062;2022-11-02T07:10:18;52.97;;;22.87;;
53339;SDS011;46212;50.258;19.062;2022-11-02T07:12:43;47.33;;;21.80;;
53339;SDS011;46212;50.258;19.062;2022-11-02T07:15:08;47.77;;;21.67;;
53339;SDS011;46212;50.258;19.062;2022-11-02T07:17:37;51.07;;;22.17;;
53339;SDS011;46212;50.258;19.062;2022-11-02T07:20:03;56.28;;;25.33;;
53339;SDS011;46212;50.258;19.062;2022-11-02T07:22:29;55.67;;;23.13;;
53339;SDS011;46212;50.258;19.062;2022-11-02T07:24:55;56.67;;;24.10;;
53339;SDS011;46212;50.258;19.062;2022-11-02T07:27:21;54.40;;;24.97;;
53339;SDS011;46212;50.258;19.062;2022-11-02T07:29:46;52.20;;;24.60;;
53339;SDS011;46212;50.258;19.062;2022-11-02T07:32:11;53.33;;;25.43;;
53339;SDS011;46212;50.258;19.062;2022-11-02T07:34:37;46.27;;;23.40;;
53339;SDS011;46212;50.258;19.062;2022-11-02T07:37:02;51.33;;;26.07;;
53339;SDS011;46212;50.258;19.062;2022-11-02T07:39:27;282.10;;;132.00;;
53339;SDS011;46212;50.258;19.062;2022-11-02T07:41:53;143.93;;;69.33;;
53339;SDS011;46212;50.258;19.062;2022-11-02T07:44:18;76.70;;;34.87;;
53339;SDS011;46212;50.258;19.062;2022-11-02T07:46:44;220.63;;;111.67;;
53339;SDS011;46212;50.258;19.062;2022-11-02T07:49:09;49.17;;;23.47;;
53339;SDS011;46212;50.258;19.062;2022-11-02T07:51:34;53.13;;;25.10;;
53339;SDS011;46212;50.258;19.062;2022-11-02T07:54:00;48.13;;;23.10;;
53339;SDS011;46212;50.258;19.062;2022-11-02T07:56:26;45.58;;;22.67;;
53339;SDS011;46212;50.258;19.062;2022-11-02T07:58:52;48.47;;;22.93;;
53339;SDS011;46212;50.258;19.062;2022-11-02T08:01:17;52.93;;;24.23;;
53339;SDS011;46212;50.258;19.062;2022-11-02T08:03:43;46.37;;;22.53;;
53339;SDS011;46212;50.258;19.062;2022-11-02T08:06:08;47.17;;;22.07;;
53339;SDS011;46212;50.258;19.062;2022-11-02T08:08:34;42.63;;;23.10;;
53339;SDS011;46212;50.258;19.062;2022-11-02T08:11:06;44.45;;;21.70;;
53339;SDS011;46212;50.258;19.062;2022-11-02T08:13:33;42.30;;;21.50;;
53339;SDS011;46212;50.258;19.062;2022-11-02T08:16:00;40.17;;;21.27;;
53339;SDS011;46212;50.258;19.062;2022-11-02T08:18:27;47.37;;;21.37;;
53339;SDS011;46212;50.258;19.062;2022-11-02T08:20:53;43.85;;;21.42;;
53339;SDS011;46212;50.258;19.062;2022-11-02T08:23:23;45.25;;;21.25;;
53339;SDS011;46212;50.258;19.062;2022-11-02T08:25:50;43.35;;;20.80;;
53339;SDS011;46212;50.258;19.062;2022-11-02T08:28:20;43.22;;;20.85;;
53339;SDS011;46212;50.258;19.062;2022-11-02T08:30:51;39.90;;;19.77;;
53339;SDS011;46212;50.258;19.062;2022-11-02T08:33:17;44.40;;;23.17;;
53339;SDS011;46212;50.258;19.062;2022-11-02T08:35:44;39.83;;;18.70;;
53339;SDS011;46212;50.258;19.062;2022-11-02T08:38:11;31.33;;;17.05;;
53339;SDS011;46212;50.258;19.062;2022-11-02T08:40:37;34.35;;;16.38;;
53339;SDS011;46212;50.258;19.062;2022-11-02T08:43:08;31.50;;;17.08;;
53339;SDS011;46212;50.258;19.062;2022-11-02T08:45:35;32.28;;;16.15;;
53339;SDS011;46212;50.258;19.062;2022-11-02T08:48:02;30.10;;;16.75;;
53339;SDS011;46212;50.258;19.062;2022-11-02T08:50:29;33.05;;;17.20;;
53339;SDS011;46212;50.258;19.062;2022-11-02T08:52:54;26.80;;;14.97;;
53339;SDS011;46212;50.258;19.062;2022-11-02T08:55:19;29.60;;;15.97;;
53339;SDS011;46212;50.258;19.062;2022-11-02T08:57:54;25.67;;;13.17;;
53339;SDS011;46212;50.258;19.062;2022-11-02T09:00:22;219.88;;;131.20;;
53339;SDS011;46212;50.258;19.062;2022-11-02T09:02:59;86.80;;;46.47;;
53339;SDS011;46212;50.258;19.062;2022-11-02T09:05:25;127.15;;;74.97;;
53339;SDS011;46212;50.258;19.062;2022-11-02T09:07:55;53.28;;;31.35;;
53339;SDS011;46212;50.258;19.062;2022-11-02T09:10:23;26.88;;;13.00;;
53339;SDS011;46212;50.258;19.062;2022-11-02T09:12:49;25.75;;;14.02;;
53339;SDS011;46212;50.258;19.062;2022-11-02T09:15:14;28.27;;;14.27;;
53339;SDS011;46212;50.258;19.062;2022-11-02T09:17:40;30.27;;;14.97;;
53339;SDS011;46212;50.258;19.062;2022-11-02T09:20:06;26.50;;;14.13;;
53339;SDS011;46212;50.258;19.062;2022-11-02T09:22:32;32.47;;;14.47;;
53339;SDS011;46212;50.258;19.062;2022-11-02T09:24:57;24.40;;;13.47;;
53339;SDS011;46212;50.258;19.062;2022-11-02T09:27:22;25.23;;;13.00;;
53339;SDS011;46212;50.258;19.062;2022-11-02T09:29:48;24.63;;;12.83;;
53339;SDS011;46212;50.258;19.062;2022-11-02T09:32:13;23.33;;;13.30;;
53339;SDS011;46212;50.258;19.062;2022-11-02T09:34:38;25.37;;;13.93;;
53339;SDS011;46212;50.258;19.062;2022-11-02T09:37:04;22.37;;;11.23;;
53339;SDS011;46212;50.258;19.062;2022-11-02T09:39:29;26.90;;;11.87;;
53339;SDS011;46212;50.258;19.062;2022-11-02T09:42:03;20.33;;;10.70;;
53339;SDS011;46212;50.258;19.062;2022-11-02T09:47:11;18.67;;;9.38;;
53339;SDS011;46212;50.258;19.062;2022-11-02T09:49:37;18.40;;;10.52;;
53339;SDS011;46212;50.258;19.062;2022-11-02T09:52:04;21.45;;;11.35;;
53339;SDS011;46212;50.258;19.062;2022-11-02T09:54:41;24.08;;;11.13;;
53339;SDS011;46212;50.258;19.062;2022-11-02T09:57:19;23.60;;;11.90;;
53339;SDS011;46212;50.258;19.062;2022-11-02T09:59:51;21.30;;;10.55;;
53339;SDS011;46212;50.258;19.062;2022-11-02T10:02:37;24.60;;;10.43;;
53339;SDS011;46212;50.258;19.062;2022-11-02T10:08:34;17.00;;;9.00;;
53339;SDS011;46212;50.258;19.062;2022-11-02T10:14:29;19.02;;;10.05;;
53339;SDS011;46212;50.258;19.062;2022-11-02T10:17:01;19.40;;;8.00;;
53339;SDS011;46212;50.258;19.062;2022-11-02T10:22:04;14.55;;;7.75;;
53339;SDS011;46212;50.258;19.062;2022-11-02T10:24:34;15.25;;;7.50;;
53339;SDS011;46212;50.258;19.062;2022-11-02T10:27:11;14.90;;;7.13;;
53339;SDS011;46212;50.258;19.062;2022-11-02T10:29:57;14.80;;;7.50;;
53339;SDS011;46212;50.258;19.062;2022-11-02T10:32:29;14.50;;;7.93;;
53339;SDS011;46212;50.258;19.062;2022-11-02T10:34:55;21.60;;;11.60;;
53339;SDS011;46212;50.258;19.062;2022-11-02T10:40:33;12.32;;;7.05;;
53339;SDS011;46212;50.258;19.062;2022-11-02T10:48:39;15.10;;;8.70;;
53339;SDS011;46212;50.258;19.062;2022-11-02T10:51:08;12.30;;;7.43;;
53339;SDS011;46212;50.258;19.062;2022-11-02T10:53:39;12.75;;;7.20;;
53339;SDS011;46212;50.258;19.062;2022-11-02T10:58:40;43.30;;;22.85;;
53339;SDS011;46212;50.258;19.062;2022-11-02T11:01:13;12.88;;;7.68;;
53339;SDS011;46212;50.258;19.062;2022-11-02T11:06:35;13.43;;;7.05;;
53339;SDS011;46212;50.258;19.062;2022-11-02T11:09:04;13.73;;;7.05;;
53339;SDS011;46212;50.258;19.062;2022-11-02T11:11:39;14.60;;;6.50;;
53339;SDS011;46212;50.258;19.062;2022-11-02T11:16:40;13.25;;;5.82;;
53339;SDS011;46212;50.258;19.062;2022-11-02T11:19:17;9.98;;;5.50;;
53339;SDS011;46212;50.258;19.062;2022-11-02T11:21:49;11.60;;;5.15;;
53339;SDS011;46212;50.258;19.062;2022-11-02T11:24:30;8.30;;;4.50;;
53339;SDS011;46212;50.258;19.062;2022-11-02T11:29:37;6.57;;;3.53;;
53339;SDS011;46212;50.258;19.062;2022-11-02T11:32:06;10.02;;;4.20;;
53339;SDS011;46212;50.258;19.062;2022-11-02T11:34:41;6.60;;;4.35;;
53339;SDS011;46212;50.258;19.062;2022-11-02T11:37:09;7.20;;;4.35;;
53339;SDS011;46212;50.258;19.062;2022-11-02T11:39:39;7.18;;;4.00;;
53339;SDS011;46212;50.258;19.062;2022-11-02T11:42:15;8.65;;;4.53;;
53339;SDS011;46212;50.258;19.062;2022-11-02T11:44:50;8.00;;;4.23;;
53339;SDS011;46212;50.258;19.062;2022-11-02T11:49:50;9.00;;;4.95;;
53339;SDS011;46212;50.258;19.062;2022-11-02T11:52:19;8.63;;;4.20;;
53339;SDS011;46212;50.258;19.062;2022-11-02T11:54:52;9.15;;;4.50;;
53339;SDS011;46212;50.258;19.062;2022-11-02T11:59:52;7.68;;;4.88;;
53339;SDS011;46212;50.258;19.062;2022-11-02T12:04:57;6.85;;;4.18;;
53339;SDS011;46212;50.258;19.062;2022-11-02T12:12:42;9.23;;;4.85;;
53339;SDS011;46212;50.258;19.062;2022-11-02T12:38:17;5.72;;;3.70;;
53339;SDS011;46212;50.258;19.062;2022-11-02T12:46:12;8.20;;;3.30;;
53339;SDS011;46212;50.258;19.062;2022-11-02T12:52:01;7.75;;;3.92;;
53339;SDS011;46212;50.258;19.062;2022-11-02T12:54:45;9.35;;;3.63;;
53339;SDS011;46212;50.258;19.062;2022-11-02T12:57:14;25.45;;;18.20;;
53339;SDS011;46212;50.258;19.062;2022-11-02T12:59:44;7.47;;;3.60;;
53339;SDS011;46212;50.258;19.062;2022-11-02T13:02:15;8.05;;;3.60;;
53339;SDS011;46212;50.258;19.062;2022-11-02T13:04:51;8.25;;;3.75;;
53339;SDS011;46212;50.258;19.062;2022-11-02T13:07:28;8.52;;;4.40;;
53339;SDS011;46212;50.258;19.062;2022-11-02T13:10:19;9.15;;;4.38;;
53339;SDS011;46212;50.258;19.062;2022-11-02T13:15:53;10.15;;;4.72;;
53339;SDS011;46212;50.258;19.062;2022-11-02T13:18:29;8.95;;;4.53;;
53339;SDS011;46212;50.258;19.062;2022-11-02T13:20:59;8.20;;;4.20;;
53339;SDS011;46212;50.258;19.062;2022-11-02T13:23:35;7.75;;;4.75;;
53339;SDS011;46212;50.258;19.062;2022-11-02T13:26:26;8.05;;;4.45;;
53339;SDS011;46212;50.258;19.062;2022-11-02T13:31:55;7.55;;;4.93;;
53339;SDS011;46212;50.258;19.062;2022-11-02T13:34:45;6.45;;;4.70;;
53339;SDS011;46212;50.258;19.062;2022-11-02T13:37:24;7.47;;;5.07;;
53339;SDS011;46212;50.258;19.062;2022-11-02T13:39:56;6.55;;;4.10;;
53339;SDS011;46212;50.258;19.062;2022-11-02T13:50:50;8.52;;;4.35;;
53339;SDS011;46212;50.258;19.062;2022-11-02T13:53:27;12.00;;;5.43;;
53339;SDS011;46212;50.258;19.062;2022-11-02T13:55:59;35.03;;;15.43;;
53339;SDS011;46212;50.258;19.062;2022-11-02T13:58:33;17.17;;;8.95;;
53339;SDS011;46212;50.258;19.062;2022-11-02T14:01:02;16.42;;;10.18;;
53339;SDS011;46212;50.258;19.062;2022-11-02T14:03:49;24.27;;;9.48;;
53339;SDS011;46212;50.258;19.062;2022-11-02T14:06:19;15.10;;;7.68;;
53339;SDS011;46212;50.258;19.062;2022-11-02T14:22:11;27.42;;;13.90;;
53339;SDS011;46212;50.258;19.062;2022-11-02T14:34:46;10.00;;;5.88;;
53339;SDS011;46212;50.258;19.062;2022-11-02T14:40:38;42.95;;;21.40;;
53339;SDS011;46212;50.258;19.062;2022-11-02T14:48:05;52.20;;;26.15;;
53339;SDS011;46212;50.258;19.062;2022-11-02T14:50:31;86.72;;;48.17;;
53339;SDS011;46212;50.258;19.062;2022-11-02T14:55:32;21.40;;;13.80;;
53339;SDS011;46212;50.258;19.062;2022-11-02T15:00:35;17.00;;;8.43;;
53339;SDS011;46212;50.258;19.062;2022-11-02T15:03:06;13.05;;;7.28;;
53339;SDS011;46212;50.258;19.062;2022-11-02T15:06:04;17.30;;;8.23;;
53339;SDS011;46212;50.258;19.062;2022-11-02T15:08:32;17.45;;;6.78;;
53339;SDS011;46212;50.258;19.062;2022-11-02T15:11:26;13.60;;;6.78;;
53339;SDS011;46212;50.258;19.062;2022-11-02T15:14:29;14.38;;;8.25;;
53339;SDS011;46212;50.258;19.062;2022-11-02T15:16:58;17.58;;;7.63;;
53339;SDS011;46212;50.258;19.062;2022-11-02T15:19:34;16.80;;;8.70;;
53339;SDS011;46212;50.258;19.062;2022-11-02T15:24:57;22.23;;;13.02;;
53339;SDS011;46212;50.258;19.062;2022-11-02T15:27:44;21.73;;;11.05;;
53339;SDS011;46212;50.258;19.062;2022-11-02T15:30:12;17.48;;;10.45;;
53339;SDS011;46212;50.258;19.062;2022-11-02T15:32:41;16.77;;;9.98;;
53339;SDS011;46212;50.258;19.062;2022-11-02T15:35:15;15.50;;;8.80;;
53339;SDS011;46212;50.258;19.062;2022-11-02T15:37:45;19.83;;;10.15;;
53339;SDS011;46212;50.258;19.062;2022-11-02T15:40:21;19.00;;;10.10;;
53339;SDS011;46212;50.258;19.062;2022-11-02T15:48:13;17.67;;;9.50;;
53339;SDS011;46212;50.258;19.062;2022-11-02T15:51:05;16.17;;;7.57;;
53339;SDS011;46212;50.258;19.062;2022-11-02T15:53:57;16.52;;;8.88;;
53339;SDS011;46212;50.258;19.062;2022-11-02T16:01:27;15.63;;;8.18;;
53339;SDS011;46212;50.258;19.062;2022-11-02T16:03:54;19.58;;;8.68;;
53339;SDS011;46212;50.258;19.062;2022-11-02T16:06:39;17.25;;;9.90;;
53339;SDS011;46212;50.258;19.062;2022-11-02T16:15:09;26.17;;;14.57;;
53339;SDS011;46212;50.258;19.062;2022-11-02T16:17:36;24.65;;;13.15;;
53339;SDS011;46212;50.258;19.062;2022-11-02T16:22:37;26.60;;;14.02;;
53339;SDS011;46212;50.258;19.062;2022-11-02T16:25:09;24.60;;;13.40;;
53339;SDS011;46212;50.258;19.062;2022-11-02T16:27:40;27.20;;;14.10;;
53339;SDS011;46212;50.258;19.062;2022-11-02T16:30:15;31.05;;;14.38;;
53339;SDS011;46212;50.258;19.062;2022-11-02T16:32:42;75.85;;;30.25;;
53339;SDS011;46212;50.258;19.062;2022-11-02T16:35:09;45.10;;;23.17;;
53339;SDS011;46212;50.258;19.062;2022-11-02T16:37:37;26.55;;;15.60;;
53339;SDS011;46212;50.258;19.062;2022-11-02T16:40:03;27.93;;;15.50;;
53339;SDS011;46212;50.258;19.062;2022-11-02T16:42:30;27.77;;;16.38;;
53339;SDS011;46212;50.258;19.062;2022-11-02T16:44:57;27.40;;;13.77;;
53339;SDS011;46212;50.258;19.062;2022-11-02T16:47:35;23.05;;;13.57;;
53339;SDS011;46212;50.258;19.062;2022-11-02T16:50:12;21.70;;;10.63;;
53339;SDS011;46212;50.258;19.062;2022-11-02T16:52:46;23.48;;;12.02;;
53339;SDS011;46212;50.258;19.062;2022-11-02T16:55:28;28.73;;;15.50;;
53339;SDS011;46212;50.258;19.062;2022-11-02T16:58:01;33.60;;;15.00;;
53339;SDS011;46212;50.258;19.062;2022-11-02T17:00:29;29.45;;;16.00;;
53339;SDS011;46212;50.258;19.062;2022-11-02T17:02:54;25.47;;;12.87;;
53339;SDS011;46212;50.258;19.062;2022-11-02T17:10:24;17.17;;;8.85;;
53339;SDS011;46212;50.258;19.062;2022-11-02T17:12:52;15.52;;;8.18;;
53339;SDS011;46212;50.258;19.062;2022-11-02T17:15:19;13.50;;;7.55;;
53339;SDS011;46212;50.258;19.062;2022-11-02T17:17:47;16.15;;;7.32;;
53339;SDS011;46212;50.258;19.062;2022-11-02T17:20:15;12.45;;;6.97;;
53339;SDS011;46212;50.258;19.062;2022-11-02T17:25:28;17.20;;;7.00;;
53339;SDS011;46212;50.258;19.062;2022-11-02T17:27:54;16.90;;;7.03;;
53339;SDS011;46212;50.258;19.062;2022-11-02T17:32:59;11.25;;;7.05;;
53339;SDS011;46212;50.258;19.062;2022-11-02T17:35:33;11.30;;;6.57;;
53339;SDS011;46212;50.258;19.062;2022-11-02T17:38:00;14.15;;;8.02;;
53339;SDS011;46212;50.258;19.062;2022-11-02T17:40:26;25.15;;;12.50;;
53339;SDS011;46212;50.258;19.062;2022-11-02T17:42:51;16.10;;;9.07;;
53339;SDS011;46212;50.258;19.062;2022-11-02T17:45:24;20.88;;;10.18;;
53339;SDS011;46212;50.258;19.062;2022-11-02T17:47:57;20.40;;;11.18;;